sensor_id;sensor_type;location;lat;lon;timestamp;temperature;humidity
6666;DHT22;3369;49.906;8.598;2022-10-31T00:01:00;10.60;99.90
6666;DHT22;3369;49.906;8.598;2022-10-31T00:03:26;10.60;99.90
6666;DHT22;3369;49.906;8.598;2022-10-31T00:05:52;10.60;99.90
6666;DHT22;3369;49.906;8.598;2022-10-31T00:08:18;10.60;99.90
6666;DHT22;3369;49.906;8.598;2022-10-31T00:10:45;10.60;99.90
6666;DHT22;3369;49.906;8.598;2022-10-31T00:13:11;10.60;99.90
6666;DHT22;3369;49.906;8.598;2022-10-31T00:15:38;10.70;99.90
6666;DHT22;3369;49.906;8.598;2022-10-31T00:18:05;10.70;99.90
6666;DHT22;3369;49.906;8.598;2022-10-31T00:20:31;10.60;99.90
6666;DHT22;3369;49.906;8.598;2022-10-31T00:22:58;10.70;99.90
6666;DHT22;3369;49.906;8.598;2022-10-31T00:25:25;10.70;99.90
6666;DHT22;3369;49.906;8.598;2022-10-31T00:27:50;10.70;99.90
6666;DHT22;3369;49.906;8.598;2022-10-31T00:30:16;10.70;99.90
6666;DHT22;3369;49.906;8.598;2022-10-31T00:32:42;10.70;99.90
6666;DHT22;3369;49.906;8.598;2022-10-31T00:35:07;10.70;99.90
6666;DHT22;3369;49.906;8.598;2022-10-31T00:37:33;10.70;99.90
6666;DHT22;3369;49.906;8.598;2022-10-31T00:39:58;10.80;99.90
6666;DHT22;3369;49.906;8.598;2022-10-31T00:42:24;10.80;99.90
6666;DHT22;3369;49.906;8.598;2022-10-31T00:44:50;10.80;99.90
6666;DHT22;3369;49.906;8.598;2022-10-31T00:47:15;10.70;99.90
6666;DHT22;3369;49.906;8.598;2022-10-31T00:49:41;10.70;99.90
6666;DHT22;3369;49.906;8.598;2022-10-31T00:52:07;10.70;99.90
6666;DHT22;3369;49.906;8.598;2022-10-31T00:54:32;10.70;99.90
6666;DHT22;3369;49.906;8.598;2022-10-31T00:56:58;10.70;99.90
6666;DHT22;3369;49.906;8.598;2022-10-31T00:59:23;10.70;99.90
6666;DHT22;3369;49.906;8.598;2022-10-31T01:01:49;10.70;99.90
6666;DHT22;3369;49.906;8.598;2022-10-31T01:04:15;10.60;99.90
6666;DHT22;3369;49.906;8.598;2022-10-31T01:06:40;10.50;99.90
6666;DHT22;3369;49.906;8.598;2022-10-31T01:09:07;10.40;99.90
6666;DHT22;3369;49.906;8.598;2022-10-31T01:11:32;10.30;99.90
6666;DHT22;3369;49.906;8.598;2022-10-31T01:13:58;10.20;99.90
6666;DHT22;3369;49.906;8.598;2022-10-31T01:16:25;10.10;99.90
6666;DHT22;3369;49.906;8.598;2022-10-31T01:18:52;10.10;99.90
6666;DHT22;3369;49.906;8.598;2022-10-31T01:21:20;10.10;99.90
6666;DHT22;3369;49.906;8.598;2022-10-31T01:23:46;10.10;99.90
6666;DHT22;3369;49.906;8.598;2022-10-31T01:26:15;10.10;99.90
6666;DHT22;3369;49.906;8.598;2022-10-31T01:28:47;10.10;99.90
6666;DHT22;3369;49.906;8.598;2022-10-31T01:31:12;10.10;99.90
6666;DHT22;3369;49.906;8.598;2022-10-31T01:33:38;10.10;99.90
6666;DHT22;3369;49.906;8.598;2022-10-31T01:38:47;10.10;99.90
6666;DHT22;3369;49.906;8.598;2022-10-31T01:41:17;10.10;99.90
6666;DHT22;3369;49.906;8.598;2022-10-31T01:43:58;10.10;99.90
6666;DHT22;3369;49.906;8.598;2022-10-31T01:46:33;10.20;99.90
6666;DHT22;3369;49.906;8.598;2022-10-31T01:49:02;10.20;99.90
6666;DHT22;3369;49.906;8.598;2022-10-31T01:51:33;10.20;99.90
6666;DHT22;3369;49.906;8.598;2022-10-31T01:54:04;10.20;99.90
6666;DHT22;3369;49.906;8.598;2022-10-31T01:56:30;10.20;99.90
6666;DHT22;3369;49.906;8.598;2022-10-31T01:58:59;10.30;99.90
6666;DHT22;3369;49.906;8.598;2022-10-31T02:01:26;10.30;99.90
6666;DHT22;3369;49.906;8.598;2022-10-31T02:03:52;10.30;99.90
6666;DHT22;3369;49.906;8.598;2022-10-31T02:06:31;10.30;99.90
6666;DHT22;3369;49.906;8.598;2022-10-31T02:08:59;10.30;99.90
6666;DHT22;3369;49.906;8.598;2022-10-31T02:11:27;10.30;99.90
6666;DHT22;3369;49.906;8.598;2022-10-31T02:13:54;10.30;99.90
6666;DHT22;3369;49.906;8.598;2022-10-31T02:16:20;10.30;99.90
6666;DHT22;3369;49.906;8.598;2022-10-31T02:39:37;10.30;99.90
6666;DHT22;3369;49.906;8.598;2022-10-31T02:42:14;10.30;99.90
6666;DHT22;3369;49.906;8.598;2022-10-31T02:47:37;10.10;99.90
6666;DHT22;3369;49.906;8.598;2022-10-31T02:52:33;10.10;99.90
6666;DHT22;3369;49.906;8.598;2022-10-31T02:55:10;10.10;99.90
6666;DHT22;3369;49.906;8.598;2022-10-31T02:57:37;10.10;99.90
6666;DHT22;3369;49.906;8.598;2022-10-31T03:00:07;10.00;99.90
6666;DHT22;3369;49.906;8.598;2022-10-31T03:05:21;9.90;99.90
6666;DHT22;3369;49.906;8.598;2022-10-31T03:07:57;9.80;99.90
6666;DHT22;3369;49.906;8.598;2022-10-31T03:13:29;9.70;99.90
6666;DHT22;3369;49.906;8.598;2022-10-31T03:16:06;9.70;99.90
6666;DHT22;3369;49.906;8.598;2022-10-31T03:18:39;9.60;99.90
6666;DHT22;3369;49.906;8.598;2022-10-31T03:23:39;9.70;99.90
6666;DHT22;3369;49.906;8.598;2022-10-31T03:26:07;9.60;99.90
6666;DHT22;3369;49.906;8.598;2022-10-31T03:28:44;9.60;99.90
6666;DHT22;3369;49.906;8.598;2022-10-31T03:31:13;9.60;99.90
6666;DHT22;3369;49.906;8.598;2022-10-31T03:33:42;9.50;99.90
6666;DHT22;3369;49.906;8.598;2022-10-31T03:36:10;9.50;99.90
6666;DHT22;3369;49.906;8.598;2022-10-31T03:38:37;9.50;99.90
6666;DHT22;3369;49.906;8.598;2022-10-31T03:41:06;9.50;99.90
6666;DHT22;3369;49.906;8.598;2022-10-31T03:43:42;9.50;99.90
6666;DHT22;3369;49.906;8.598;2022-10-31T03:46:09;9.50;99.90
6666;DHT22;3369;49.906;8.598;2022-10-31T03:48:34;9.50;99.90
6666;DHT22;3369;49.906;8.598;2022-10-31T03:51:15;9.50;99.90
6666;DHT22;3369;49.906;8.598;2022-10-31T03:54:08;9.60;99.90
6666;DHT22;3369;49.906;8.598;2022-10-31T03:56:55;9.50;99.90
6666;DHT22;3369;49.906;8.598;2022-10-31T03:59:47;9.60;99.90
6666;DHT22;3369;49.906;8.598;2022-10-31T04:02:17;9.60;99.90
6666;DHT22;3369;49.906;8.598;2022-10-31T04:04:44;9.60;99.90
6666;DHT22;3369;49.906;8.598;2022-10-31T04:07:12;9.70;99.90
6666;DHT22;3369;49.906;8.598;2022-10-31T04:09:41;9.70;99.90
6666;DHT22;3369;49.906;8.598;2022-10-31T04:12:08;9.70;99.90
6666;DHT22;3369;49.906;8.598;2022-10-31T04:14:39;9.70;99.90
6666;DHT22;3369;49.906;8.598;2022-10-31T04:17:12;9.70;99.90
6666;DHT22;3369;49.906;8.598;2022-10-31T04:19:39;9.70;99.90
6666;DHT22;3369;49.906;8.598;2022-10-31T04:22:04;9.70;99.90
6666;DHT22;3369;49.906;8.598;2022-10-31T04:24:30;9.70;99.90
6666;DHT22;3369;49.906;8.598;2022-10-31T04:26:56;9.70;99.90
6666;DHT22;3369;49.906;8.598;2022-10-31T04:29:21;9.70;99.90
6666;DHT22;3369;49.906;8.598;2022-10-31T04:31:47;9.70;99.90
6666;DHT22;3369;49.906;8.598;2022-10-31T04:34:12;9.70;99.90
6666;DHT22;3369;49.906;8.598;2022-10-31T04:36:38;9.70;99.90
6666;DHT22;3369;49.906;8.598;2022-10-31T04:39:04;9.70;99.90
6666;DHT22;3369;49.906;8.598;2022-10-31T04:41:29;9.70;99.90
6666;DHT22;3369;49.906;8.598;2022-10-31T04:43:55;9.70;99.90
6666;DHT22;3369;49.906;8.598;2022-10-31T04:46:20;9.70;99.90
6666;DHT22;3369;49.906;8.598;2022-10-31T04:48:46;9.70;99.90
6666;DHT22;3369;49.906;8.598;2022-10-31T04:51:12;9.70;99.90
6666;DHT22;3369;49.906;8.598;2022-10-31T04:53:37;9.60;99.90
6666;DHT22;3369;49.906;8.598;2022-10-31T04:56:03;9.70;99.90
6666;DHT22;3369;49.906;8.598;2022-10-31T04:58:29;9.60;99.90
6666;DHT22;3369;49.906;8.598;2022-10-31T05:00:55;9.60;99.90
6666;DHT22;3369;49.906;8.598;2022-10-31T05:03:21;9.50;99.90
6666;DHT22;3369;49.906;8.598;2022-10-31T05:05:47;9.50;99.90
6666;DHT22;3369;49.906;8.598;2022-10-31T05:08:13;9.50;99.90
6666;DHT22;3369;49.906;8.598;2022-10-31T05:10:39;9.50;99.90
6666;DHT22;3369;49.906;8.598;2022-10-31T05:13:05;9.50;99.90
6666;DHT22;3369;49.906;8.598;2022-10-31T05:15:30;9.40;99.90
6666;DHT22;3369;49.906;8.598;2022-10-31T05:17:56;9.40;99.90
6666;DHT22;3369;49.906;8.598;2022-10-31T05:20:25;9.40;99.90
6666;DHT22;3369;49.906;8.598;2022-10-31T05:22:53;9.40;99.90
6666;DHT22;3369;49.906;8.598;2022-10-31T05:25:21;9.40;99.90
6666;DHT22;3369;49.906;8.598;2022-10-31T05:27:49;9.40;99.90
6666;DHT22;3369;49.906;8.598;2022-10-31T05:30:19;9.40;99.90
6666;DHT22;3369;49.906;8.598;2022-10-31T05:32:47;9.30;99.90
6666;DHT22;3369;49.906;8.598;2022-10-31T05:35:15;9.30;99.90
6666;DHT22;3369;49.906;8.598;2022-10-31T05:37:41;9.30;99.90
6666;DHT22;3369;49.906;8.598;2022-10-31T05:40:09;9.30;99.90
6666;DHT22;3369;49.906;8.598;2022-10-31T05:42:35;9.30;99.90
6666;DHT22;3369;49.906;8.598;2022-10-31T05:45:01;9.30;99.90
6666;DHT22;3369;49.906;8.598;2022-10-31T05:47:27;9.30;99.90
6666;DHT22;3369;49.906;8.598;2022-10-31T05:49:52;9.30;99.90
6666;DHT22;3369;49.906;8.598;2022-10-31T05:52:18;9.30;99.90
6666;DHT22;3369;49.906;8.598;2022-10-31T05:54:44;9.30;99.90
6666;DHT22;3369;49.906;8.598;2022-10-31T05:57:10;9.30;99.90
6666;DHT22;3369;49.906;8.598;2022-10-31T05:59:35;9.30;99.90
6666;DHT22;3369;49.906;8.598;2022-10-31T06:02:01;9.30;99.90
6666;DHT22;3369;49.906;8.598;2022-10-31T06:04:26;9.30;99.90
6666;DHT22;3369;49.906;8.598;2022-10-31T06:06:52;9.30;99.90
6666;DHT22;3369;49.906;8.598;2022-10-31T06:09:18;9.30;99.90
6666;DHT22;3369;49.906;8.598;2022-10-31T06:11:43;9.30;99.90
6666;DHT22;3369;49.906;8.598;2022-10-31T06:14:09;9.30;99.90
6666;DHT22;3369;49.906;8.598;2022-10-31T06:16:34;9.30;99.90
6666;DHT22;3369;49.906;8.598;2022-10-31T06:19:00;9.40;99.90
6666;DHT22;3369;49.906;8.598;2022-10-31T06:21:26;9.40;99.90
6666;DHT22;3369;49.906;8.598;2022-10-31T06:23:51;9.40;99.90
6666;DHT22;3369;49.906;8.598;2022-10-31T06:26:17;9.40;99.90
6666;DHT22;3369;49.906;8.598;2022-10-31T06:28:43;9.40;99.90
6666;DHT22;3369;49.906;8.598;2022-10-31T06:31:08;9.40;99.90
6666;DHT22;3369;49.906;8.598;2022-10-31T06:33:34;9.40;99.90
6666;DHT22;3369;49.906;8.598;2022-10-31T06:36:00;9.50;99.90
6666;DHT22;3369;49.906;8.598;2022-10-31T06:38:27;9.50;99.90
6666;DHT22;3369;49.906;8.598;2022-10-31T06:40:53;9.50;99.90
6666;DHT22;3369;49.906;8.598;2022-10-31T06:43:20;9.50;99.90
6666;DHT22;3369;49.906;8.598;2022-10-31T06:45:45;9.50;99.90
6666;DHT22;3369;49.906;8.598;2022-10-31T06:48:11;9.60;99.90
6666;DHT22;3369;49.906;8.598;2022-10-31T06:50:37;9.60;99.90
6666;DHT22;3369;49.906;8.598;2022-10-31T06:53:02;9.70;99.90
6666;DHT22;3369;49.906;8.598;2022-10-31T06:55:28;9.70;99.90
6666;DHT22;3369;49.906;8.598;2022-10-31T06:57:59;9.70;99.90
6666;DHT22;3369;49.906;8.598;2022-10-31T07:00:26;9.80;99.90
6666;DHT22;3369;49.906;8.598;2022-10-31T07:03:00;9.80;99.90
6666;DHT22;3369;49.906;8.598;2022-10-31T07:05:27;9.80;99.90
6666;DHT22;3369;49.906;8.598;2022-10-31T07:08:02;9.90;99.90
6666;DHT22;3369;49.906;8.598;2022-10-31T07:10:30;9.90;99.90
6666;DHT22;3369;49.906;8.598;2022-10-31T07:12:57;9.90;99.90
6666;DHT22;3369;49.906;8.598;2022-10-31T07:15:24;9.90;99.90
6666;DHT22;3369;49.906;8.598;2022-10-31T07:17:50;10.00;99.90
6666;DHT22;3369;49.906;8.598;2022-10-31T07:20:15;10.00;99.90
6666;DHT22;3369;49.906;8.598;2022-10-31T07:22:41;10.10;99.90
6666;DHT22;3369;49.906;8.598;2022-10-31T07:25:07;10.10;99.90
6666;DHT22;3369;49.906;8.598;2022-10-31T07:27:38;10.10;99.90
6666;DHT22;3369;49.906;8.598;2022-10-31T07:30:04;10.20;99.90
6666;DHT22;3369;49.906;8.598;2022-10-31T07:32:52;10.30;99.90
6666;DHT22;3369;49.906;8.598;2022-10-31T07:35:25;10.30;99.90
6666;DHT22;3369;49.906;8.598;2022-10-31T07:37:52;10.40;99.90
6666;DHT22;3369;49.906;8.598;2022-10-31T07:40:18;10.40;99.90
6666;DHT22;3369;49.906;8.598;2022-10-31T07:42:46;10.40;99.90
6666;DHT22;3369;49.906;8.598;2022-10-31T07:45:17;10.50;99.90
6666;DHT22;3369;49.906;8.598;2022-10-31T07:47:51;10.50;99.90
6666;DHT22;3369;49.906;8.598;2022-10-31T07:50:26;10.60;99.90
6666;DHT22;3369;49.906;8.598;2022-10-31T07:55:28;10.70;99.90
6666;DHT22;3369;49.906;8.598;2022-10-31T07:58:03;10.70;99.90
6666;DHT22;3369;49.906;8.598;2022-10-31T08:00:30;10.80;99.90
6666;DHT22;3369;49.906;8.598;2022-10-31T08:02:58;10.80;99.90
6666;DHT22;3369;49.906;8.598;2022-10-31T08:05:23;10.90;99.90
6666;DHT22;3369;49.906;8.598;2022-10-31T08:07:49;10.90;99.90
6666;DHT22;3369;49.906;8.598;2022-10-31T08:10:15;11.00;99.90
6666;DHT22;3369;49.906;8.598;2022-10-31T08:12:40;11.00;99.90
6666;DHT22;3369;49.906;8.598;2022-10-31T08:15:07;11.10;99.90
6666;DHT22;3369;49.906;8.598;2022-10-31T08:17:35;11.10;99.90
6666;DHT22;3369;49.906;8.598;2022-10-31T08:20:01;11.20;99.90
6666;DHT22;3369;49.906;8.598;2022-10-31T08:22:27;11.20;99.90
6666;DHT22;3369;49.906;8.598;2022-10-31T08:24:53;11.20;99.90
6666;DHT22;3369;49.906;8.598;2022-10-31T08:27:18;11.30;99.90
6666;DHT22;3369;49.906;8.598;2022-10-31T08:29:44;11.30;99.90
6666;DHT22;3369;49.906;8.598;2022-10-31T08:32:09;11.30;99.90
6666;DHT22;3369;49.906;8.598;2022-10-31T08:34:35;11.40;99.90
6666;DHT22;3369;49.906;8.598;2022-10-31T08:37:01;11.40;99.90
6666;DHT22;3369;49.906;8.598;2022-10-31T08:39:26;11.50;99.90
6666;DHT22;3369;49.906;8.598;2022-10-31T08:41:52;11.50;99.90
6666;DHT22;3369;49.906;8.598;2022-10-31T08:44:17;11.60;99.90
6666;DHT22;3369;49.906;8.598;2022-10-31T08:46:43;11.60;99.90
6666;DHT22;3369;49.906;8.598;2022-10-31T08:49:09;11.70;99.90
6666;DHT22;3369;49.906;8.598;2022-10-31T08:51:34;11.70;99.90
6666;DHT22;3369;49.906;8.598;2022-10-31T08:54:00;11.80;99.90
6666;DHT22;3369;49.906;8.598;2022-10-31T08:56:26;11.90;99.90
6666;DHT22;3369;49.906;8.598;2022-10-31T08:58:53;11.80;99.90
6666;DHT22;3369;49.906;8.598;2022-10-31T09:01:19;11.90;99.90
6666;DHT22;3369;49.906;8.598;2022-10-31T09:03:44;11.90;99.90
6666;DHT22;3369;49.906;8.598;2022-10-31T09:06:10;12.00;99.90
6666;DHT22;3369;49.906;8.598;2022-10-31T09:08:36;11.90;99.90
6666;DHT22;3369;49.906;8.598;2022-10-31T09:11:03;12.00;99.90
6666;DHT22;3369;49.906;8.598;2022-10-31T09:13:29;12.10;99.90
6666;DHT22;3369;49.906;8.598;2022-10-31T09:15:56;12.10;99.90
6666;DHT22;3369;49.906;8.598;2022-10-31T09:18:23;12.20;99.90
6666;DHT22;3369;49.906;8.598;2022-10-31T09:20:50;12.20;99.90
6666;DHT22;3369;49.906;8.598;2022-10-31T09:23:18;12.30;99.90
6666;DHT22;3369;49.906;8.598;2022-10-31T09:25:45;12.30;99.90
6666;DHT22;3369;49.906;8.598;2022-10-31T09:28:14;12.40;99.90
6666;DHT22;3369;49.906;8.598;2022-10-31T09:30:40;12.40;99.90
6666;DHT22;3369;49.906;8.598;2022-10-31T09:33:11;12.50;99.90
6666;DHT22;3369;49.906;8.598;2022-10-31T09:35:37;12.50;99.90
6666;DHT22;3369;49.906;8.598;2022-10-31T09:38:05;12.60;99.90
6666;DHT22;3369;49.906;8.598;2022-10-31T09:45:41;12.80;99.90
6666;DHT22;3369;49.906;8.598;2022-10-31T09:50:49;13.00;99.90
6666;DHT22;3369;49.906;8.598;2022-10-31T09:55:48;13.30;99.90
6666;DHT22;3369;49.906;8.598;2022-10-31T09:58:24;13.40;99.90
6666;DHT22;3369;49.906;8.598;2022-10-31T10:00:51;13.50;99.90
6666;DHT22;3369;49.906;8.598;2022-10-31T10:03:28;13.50;99.90
6666;DHT22;3369;49.906;8.598;2022-10-31T10:06:17;13.60;99.90
6666;DHT22;3369;49.906;8.598;2022-10-31T10:08:44;13.70;99.90
6666;DHT22;3369;49.906;8.598;2022-10-31T10:11:17;13.80;99.90
6666;DHT22;3369;49.906;8.598;2022-10-31T10:14:23;13.80;99.90
6666;DHT22;3369;49.906;8.598;2022-10-31T10:17:11;13.80;99.90
6666;DHT22;3369;49.906;8.598;2022-10-31T10:22:28;14.00;99.90
6666;DHT22;3369;49.906;8.598;2022-10-31T10:25:22;14.00;99.90
6666;DHT22;3369;49.906;8.598;2022-10-31T10:33:00;14.20;99.90
6666;DHT22;3369;49.906;8.598;2022-10-31T10:35:35;14.30;99.90
6666;DHT22;3369;49.906;8.598;2022-10-31T10:40:52;14.40;99.90
6666;DHT22;3369;49.906;8.598;2022-10-31T10:43:30;14.40;99.90
6666;DHT22;3369;49.906;8.598;2022-10-31T10:49:13;14.60;99.90
6666;DHT22;3369;49.906;8.598;2022-10-31T10:57:27;14.90;99.90
6666;DHT22;3369;49.906;8.598;2022-10-31T11:00:00;15.00;99.90
6666;DHT22;3369;49.906;8.598;2022-10-31T11:02:31;15.10;99.90
6666;DHT22;3369;49.906;8.598;2022-10-31T11:04:59;15.20;99.90
6666;DHT22;3369;49.906;8.598;2022-10-31T11:07:37;15.30;99.90
6666;DHT22;3369;49.906;8.598;2022-10-31T11:10:11;15.40;99.90
6666;DHT22;3369;49.906;8.598;2022-10-31T11:12:40;15.60;99.90
6666;DHT22;3369;49.906;8.598;2022-10-31T11:15:21;15.70;99.90
6666;DHT22;3369;49.906;8.598;2022-10-31T11:17:50;15.80;99.90
6666;DHT22;3369;49.906;8.598;2022-10-31T11:22:44;16.10;99.90
6666;DHT22;3369;49.906;8.598;2022-10-31T11:27:45;16.40;99.90
6666;DHT22;3369;49.906;8.598;2022-10-31T11:30:13;16.50;99.90
6666;DHT22;3369;49.906;8.598;2022-10-31T11:32:58;16.60;99.90
6666;DHT22;3369;49.906;8.598;2022-10-31T11:35:24;16.70;99.90
6666;DHT22;3369;49.906;8.598;2022-10-31T11:37:52;16.70;99.90
6666;DHT22;3369;49.906;8.598;2022-10-31T11:40:25;16.70;99.90
6666;DHT22;3369;49.906;8.598;2022-10-31T11:42:54;16.80;99.90
6666;DHT22;3369;49.906;8.598;2022-10-31T11:47:53;16.90;99.90
6666;DHT22;3369;49.906;8.598;2022-10-31T11:50:26;17.00;99.90
6666;DHT22;3369;49.906;8.598;2022-10-31T11:52:53;17.00;99.90
6666;DHT22;3369;49.906;8.598;2022-10-31T11:55:37;17.10;99.90
6666;DHT22;3369;49.906;8.598;2022-10-31T11:58:03;17.10;99.90
6666;DHT22;3369;49.906;8.598;2022-10-31T12:00:54;17.20;99.90
6666;DHT22;3369;49.906;8.598;2022-10-31T12:08:35;17.30;99.90
6666;DHT22;3369;49.906;8.598;2022-10-31T12:11:27;17.30;99.90
6666;DHT22;3369;49.906;8.598;2022-10-31T12:14:32;17.30;99.90
6666;DHT22;3369;49.906;8.598;2022-10-31T12:25:09;17.50;99.90
6666;DHT22;3369;49.906;8.598;2022-10-31T12:30:28;17.50;99.90
6666;DHT22;3369;49.906;8.598;2022-10-31T12:39:21;17.70;99.90
6666;DHT22;3369;49.906;8.598;2022-10-31T12:58:34;17.80;99.90
6666;DHT22;3369;49.906;8.598;2022-10-31T13:01:22;17.70;99.90
6666;DHT22;3369;49.906;8.598;2022-10-31T13:06:51;17.70;99.90
6666;DHT22;3369;49.906;8.598;2022-10-31T13:09:25;17.70;99.90
6666;DHT22;3369;49.906;8.598;2022-10-31T13:11:58;17.70;99.90
6666;DHT22;3369;49.906;8.598;2022-10-31T13:14:32;17.70;99.90
6666;DHT22;3369;49.906;8.598;2022-10-31T13:16:59;17.70;99.90
6666;DHT22;3369;49.906;8.598;2022-10-31T13:19:41;17.70;99.90
6666;DHT22;3369;49.906;8.598;2022-10-31T13:22:21;17.70;99.90
6666;DHT22;3369;49.906;8.598;2022-10-31T13:27:51;17.70;99.90
6666;DHT22;3369;49.906;8.598;2022-10-31T13:30:20;17.70;99.90
6666;DHT22;3369;49.906;8.598;2022-10-31T13:36:10;17.70;99.90
6666;DHT22;3369;49.906;8.598;2022-10-31T13:38:17;17.70;99.90
6666;DHT22;3369;49.906;8.598;2022-10-31T13:40:52;17.70;99.90
6666;DHT22;3369;49.906;8.598;2022-10-31T13:43:30;17.70;99.90
6666;DHT22;3369;49.906;8.598;2022-10-31T13:45:57;17.70;99.90
6666;DHT22;3369;49.906;8.598;2022-10-31T13:51:00;17.70;99.90
6666;DHT22;3369;49.906;8.598;2022-10-31T13:54:01;17.70;99.90
6666;DHT22;3369;49.906;8.598;2022-10-31T13:56:32;17.70;99.90
6666;DHT22;3369;49.906;8.598;2022-10-31T14:01:33;17.60;99.90
6666;DHT22;3369;49.906;8.598;2022-10-31T14:09:32;17.50;99.90
6666;DHT22;3369;49.906;8.598;2022-10-31T14:12:03;17.40;99.90
6666;DHT22;3369;49.906;8.598;2022-10-31T14:14:34;17.40;99.90
6666;DHT22;3369;49.906;8.598;2022-10-31T14:17:01;17.30;99.90
6666;DHT22;3369;49.906;8.598;2022-10-31T14:19:27;17.30;99.90
6666;DHT22;3369;49.906;8.598;2022-10-31T14:21:53;17.30;99.90
6666;DHT22;3369;49.906;8.598;2022-10-31T14:26:52;17.30;99.90
6666;DHT22;3369;49.906;8.598;2022-10-31T14:29:21;17.40;99.90
6666;DHT22;3369;49.906;8.598;2022-10-31T14:32:01;17.50;99.90
6666;DHT22;3369;49.906;8.598;2022-10-31T14:54:53;17.80;99.90
6666;DHT22;3369;49.906;8.598;2022-10-31T14:57:29;17.80;99.90
6666;DHT22;3369;49.906;8.598;2022-10-31T15:00:06;17.70;99.90
6666;DHT22;3369;49.906;8.598;2022-10-31T15:02:48;17.60;99.90
6666;DHT22;3369;49.906;8.598;2022-10-31T15:05:16;17.50;99.90
6666;DHT22;3369;49.906;8.598;2022-10-31T15:07:55;17.40;99.90
6666;DHT22;3369;49.906;8.598;2022-10-31T15:10:30;17.30;99.90
6666;DHT22;3369;49.906;8.598;2022-10-31T15:13:09;17.20;99.90
6666;DHT22;3369;49.906;8.598;2022-10-31T15:15:36;17.10;99.90
6666;DHT22;3369;49.906;8.598;2022-10-31T15:18:04;17.00;99.90
6666;DHT22;3369;49.906;8.598;2022-10-31T15:20:37;16.90;99.90
6666;DHT22;3369;49.906;8.598;2022-10-31T15:23:03;16.80;99.90
6666;DHT22;3369;49.906;8.598;2022-10-31T15:25:33;16.60;99.90
6666;DHT22;3369;49.906;8.598;2022-10-31T15:27:59;16.60;99.90
6666;DHT22;3369;49.906;8.598;2022-10-31T15:30:27;16.50;99.90
6666;DHT22;3369;49.906;8.598;2022-10-31T15:32:53;16.40;99.90
6666;DHT22;3369;49.906;8.598;2022-10-31T15:35:24;16.40;99.90
6666;DHT22;3369;49.906;8.598;2022-10-31T15:37:54;16.30;99.90
6666;DHT22;3369;49.906;8.598;2022-10-31T15:40:22;16.20;99.90
6666;DHT22;3369;49.906;8.598;2022-10-31T15:43:01;16.20;99.90
6666;DHT22;3369;49.906;8.598;2022-10-31T15:45:29;16.10;99.90
6666;DHT22;3369;49.906;8.598;2022-10-31T15:48:11;16.00;99.90
6666;DHT22;3369;49.906;8.598;2022-10-31T15:50:40;16.00;99.90
6666;DHT22;3369;49.906;8.598;2022-10-31T15:53:17;15.90;99.90
6666;DHT22;3369;49.906;8.598;2022-10-31T15:55:58;15.90;99.90
6666;DHT22;3369;49.906;8.598;2022-10-31T15:58:24;15.90;99.90
6666;DHT22;3369;49.906;8.598;2022-10-31T16:01:24;15.80;99.90
6666;DHT22;3369;49.906;8.598;2022-10-31T16:04:22;15.80;99.90
6666;DHT22;3369;49.906;8.598;2022-10-31T16:07:14;15.70;99.90
6666;DHT22;3369;49.906;8.598;2022-10-31T16:10:25;15.70;99.90
6666;DHT22;3369;49.906;8.598;2022-10-31T16:12:51;15.60;99.90
6666;DHT22;3369;49.906;8.598;2022-10-31T16:15:19;15.60;99.90
6666;DHT22;3369;49.906;8.598;2022-10-31T16:17:50;15.60;99.90
6666;DHT22;3369;49.906;8.598;2022-10-31T16:20:22;15.60;99.90
6666;DHT22;3369;49.906;8.598;2022-10-31T16:22:51;15.60;99.90
6666;DHT22;3369;49.906;8.598;2022-10-31T16:25:33;15.50;99.90
6666;DHT22;3369;49.906;8.598;2022-10-31T16:28:04;15.50;99.90
6666;DHT22;3369;49.906;8.598;2022-10-31T16:30:39;15.50;99.90
6666;DHT22;3369;49.906;8.598;2022-10-31T16:33:33;15.50;99.90
6666;DHT22;3369;49.906;8.598;2022-10-31T16:38:46;15.60;99.90
6666;DHT22;3369;49.906;8.598;2022-10-31T16:41:11;15.60;99.90
6666;DHT22;3369;49.906;8.598;2022-10-31T16:43:37;15.50;99.90
6666;DHT22;3369;49.906;8.598;2022-10-31T16:46:03;15.50;99.90
6666;DHT22;3369;49.906;8.598;2022-10-31T16:48:29;15.60;99.90
6666;DHT22;3369;49.906;8.598;2022-10-31T16:50:55;15.60;99.90
6666;DHT22;3369;49.906;8.598;2022-10-31T16:53:20;15.60;99.90
6666;DHT22;3369;49.906;8.598;2022-10-31T16:55:54;15.70;99.90
6666;DHT22;3369;49.906;8.598;2022-10-31T16:58:25;15.70;99.90
6666;DHT22;3369;49.906;8.598;2022-10-31T17:00:51;15.70;99.90
6666;DHT22;3369;49.906;8.598;2022-10-31T17:03:18;15.70;99.90
6666;DHT22;3369;49.906;8.598;2022-10-31T17:05:44;15.70;99.90
6666;DHT22;3369;49.906;8.598;2022-10-31T17:08:10;15.70;99.90
6666;DHT22;3369;49.906;8.598;2022-10-31T17:10:36;15.70;99.90
6666;DHT22;3369;49.906;8.598;2022-10-31T17:13:03;15.70;99.90
6666;DHT22;3369;49.906;8.598;2022-10-31T17:15:52;15.60;99.90
6666;DHT22;3369;49.906;8.598;2022-10-31T17:18:19;15.60;99.90
6666;DHT22;3369;49.906;8.598;2022-10-31T17:20:45;15.60;99.90
6666;DHT22;3369;49.906;8.598;2022-10-31T17:23:13;15.60;99.90
6666;DHT22;3369;49.906;8.598;2022-10-31T17:25:39;15.50;99.90
6666;DHT22;3369;49.906;8.598;2022-10-31T17:28:06;15.50;99.90
6666;DHT22;3369;49.906;8.598;2022-10-31T17:30:32;15.50;99.90
6666;DHT22;3369;49.906;8.598;2022-10-31T17:32:59;15.60;99.90
6666;DHT22;3369;49.906;8.598;2022-10-31T17:35:25;15.60;99.90
6666;DHT22;3369;49.906;8.598;2022-10-31T17:37:51;15.50;99.90
6666;DHT22;3369;49.906;8.598;2022-10-31T17:40:18;15.50;99.90
6666;DHT22;3369;49.906;8.598;2022-10-31T17:42:53;15.50;99.90
6666;DHT22;3369;49.906;8.598;2022-10-31T17:45:20;15.60;99.90
6666;DHT22;3369;49.906;8.598;2022-10-31T17:47:47;15.50;99.90
6666;DHT22;3369;49.906;8.598;2022-10-31T17:50:15;15.50;99.90
6666;DHT22;3369;49.906;8.598;2022-10-31T17:52:41;15.50;99.90
6666;DHT22;3369;49.906;8.598;2022-10-31T17:55:07;15.40;99.90
6666;DHT22;3369;49.906;8.598;2022-10-31T17:57:34;15.30;99.90
6666;DHT22;3369;49.906;8.598;2022-10-31T18:00:01;15.20;99.90
6666;DHT22;3369;49.906;8.598;2022-10-31T18:02:27;15.10;99.90
6666;DHT22;3369;49.906;8.598;2022-10-31T18:04:52;15.00;99.90
6666;DHT22;3369;49.906;8.598;2022-10-31T18:07:18;14.90;99.90
6666;DHT22;3369;49.906;8.598;2022-10-31T18:09:48;14.80;99.90
6666;DHT22;3369;49.906;8.598;2022-10-31T18:12:14;14.70;99.90
6666;DHT22;3369;49.906;8.598;2022-10-31T18:14:40;14.60;99.90
6666;DHT22;3369;49.906;8.598;2022-10-31T18:17:06;14.50;99.90
6666;DHT22;3369;49.906;8.598;2022-10-31T18:19:32;14.40;99.90
6666;DHT22;3369;49.906;8.598;2022-10-31T18:21:58;14.40;99.90
6666;DHT22;3369;49.906;8.598;2022-10-31T18:24:24;14.30;99.90
6666;DHT22;3369;49.906;8.598;2022-10-31T18:26:50;14.20;99.90
6666;DHT22;3369;49.906;8.598;2022-10-31T18:29:15;14.20;99.90
6666;DHT22;3369;49.906;8.598;2022-10-31T18:31:42;14.10;99.90
6666;DHT22;3369;49.906;8.598;2022-10-31T18:34:07;14.10;99.90
6666;DHT22;3369;49.906;8.598;2022-10-31T18:36:33;14.00;99.90
6666;DHT22;3369;49.906;8.598;2022-10-31T18:38:59;14.00;99.90
6666;DHT22;3369;49.906;8.598;2022-10-31T18:41:25;13.90;99.90
6666;DHT22;3369;49.906;8.598;2022-10-31T18:43:51;13.90;99.90
6666;DHT22;3369;49.906;8.598;2022-10-31T18:46:20;13.80;99.90
6666;DHT22;3369;49.906;8.598;2022-10-31T18:48:46;13.80;99.90
6666;DHT22;3369;49.906;8.598;2022-10-31T18:51:13;13.80;99.90
6666;DHT22;3369;49.906;8.598;2022-10-31T18:53:39;13.80;99.90
6666;DHT22;3369;49.906;8.598;2022-10-31T18:56:09;13.80;99.90
6666;DHT22;3369;49.906;8.598;2022-10-31T18:58:36;13.80;99.90
6666;DHT22;3369;49.906;8.598;2022-10-31T19:01:06;13.90;99.90